LGX74P SGAS-SARP
Flight info
| Callsign | LGX74P |
|---|---|
| Flight time | 0h 31m |
| Altitude | 23000 |
| Route | VALIT A430 LIVOX |
| Aircraft | B738/M-SDE2E3FGHIRWXY/LB1 |
Departure
| Time | 2026-04-17 16:23 |
|---|---|
| Airport | Silvio Pettirossi International Airport (SGAS) |
Arrival
| Time | 2026-04-17 16:54 |
|---|---|
| Airport | Libertador Gral D Jose De San Martin Airport (SARP) |
| Time | Latitude | Longitude | Altitude | Speed | Heading |
|---|---|---|---|---|---|
| 2026-04-17 16:05 | -25.24232 | -57.51556 | 279 ft | 0 kts | 125° |
| 2026-04-17 16:17 | -25.24252 | -57.51538 | 283 ft | 5 kts | 174° |
| 2026-04-17 16:17 | -25.24279 | -57.51561 | 285 ft | 5 kts | 241° |
| 2026-04-17 16:17 | -25.24297 | -57.51596 | 286 ft | 5 kts | 240° |
| 2026-04-17 16:18 | -25.24316 | -57.51631 | 283 ft | 6 kts | 239° |
| 2026-04-17 16:18 | -25.24343 | -57.51678 | 283 ft | 9 kts | 236° |
| 2026-04-17 16:18 | -25.24381 | -57.51740 | 284 ft | 10 kts | 236° |
| 2026-04-17 16:18 | -25.24423 | -57.51795 | 285 ft | 9 kts | 207° |
| 2026-04-17 16:19 | -25.24485 | -57.51815 | 285 ft | 9 kts | 195° |
| 2026-04-17 16:19 | -25.24550 | -57.51831 | 286 ft | 10 kts | 193° |
| 2026-04-17 16:19 | -25.24623 | -57.51849 | 287 ft | 11 kts | 192° |
| 2026-04-17 16:19 | -25.24697 | -57.51867 | 288 ft | 11 kts | 191° |
| 2026-04-17 16:20 | -25.24770 | -57.51882 | 289 ft | 10 kts | 191° |
| 2026-04-17 16:20 | -25.24840 | -57.51897 | 293 ft | 10 kts | 190° |
| 2026-04-17 16:20 | -25.24908 | -57.51909 | 292 ft | 10 kts | 189° |
| 2026-04-17 16:20 | -25.24975 | -57.51921 | 292 ft | 10 kts | 188° |
| 2026-04-17 16:21 | -25.25068 | -57.51954 | 294 ft | 19 kts | 195° |
| 2026-04-17 16:21 | -25.25192 | -57.51989 | 294 ft | 18 kts | 193° |
| 2026-04-17 16:21 | -25.25313 | -57.52019 | 297 ft | 17 kts | 192° |
| 2026-04-17 16:21 | -25.25430 | -57.52045 | 299 ft | 17 kts | 191° |
| 2026-04-17 16:22 | -25.25476 | -57.52136 | 300 ft | 16 kts | 281° |
| 2026-04-17 16:22 | -25.25445 | -57.52246 | 298 ft | 15 kts | 323° |
| 2026-04-17 16:22 | -25.25148 | -57.52195 | 294 ft | 94 kts | 12° |
| 2026-04-17 16:22 | -25.24221 | -57.51943 | 467 ft | 172 kts | 16° |
| 2026-04-17 16:23 | -25.22979 | -57.51590 | 1626 ft | 178 kts | 12° |
| 2026-04-17 16:23 | -25.21742 | -57.51312 | 2820 ft | 198 kts | 11° |
| 2026-04-17 16:23 | -25.20293 | -57.50988 | 3321 ft | 229 kts | 11° |
| 2026-04-17 16:23 | -25.18660 | -57.50610 | 3942 ft | 245 kts | 12° |
| 2026-04-17 16:24 | -25.16935 | -57.50195 | 4621 ft | 265 kts | 12° |
| 2026-04-17 16:24 | -25.15094 | -57.49752 | 5524 ft | 276 kts | 11° |
| 2026-04-17 16:24 | -25.13212 | -57.49180 | 6468 ft | 287 kts | 23° |
| 2026-04-17 16:24 | -25.11584 | -57.47880 | 7493 ft | 292 kts | 45° |
| 2026-04-17 16:25 | -25.10373 | -57.46081 | 8577 ft | 295 kts | 60° |
| 2026-04-17 16:25 | -25.09658 | -57.43951 | 9604 ft | 300 kts | 78° |
| 2026-04-17 16:25 | -25.09570 | -57.41637 | 10533 ft | 306 kts | 97° |
| 2026-04-17 16:25 | -25.10169 | -57.39374 | 11393 ft | 311 kts | 118° |
| 2026-04-17 16:26 | -25.11416 | -57.37431 | 12282 ft | 312 kts | 138° |
| 2026-04-17 16:26 | -25.13191 | -57.36063 | 13164 ft | 312 kts | 159° |
| 2026-04-17 16:26 | -25.15270 | -57.35458 | 14042 ft | 309 kts | 178° |
| 2026-04-17 16:26 | -25.17413 | -57.35505 | 14909 ft | 308 kts | 188° |
| 2026-04-17 16:27 | -25.19543 | -57.35772 | 15776 ft | 309 kts | 191° |
| 2026-04-17 16:27 | -25.21671 | -57.36167 | 16636 ft | 311 kts | 194° |
| 2026-04-17 16:27 | -25.23792 | -57.36664 | 17495 ft | 313 kts | 195° |
| 2026-04-17 16:27 | -25.25923 | -57.37209 | 18342 ft | 315 kts | 197° |
| 2026-04-17 16:28 | -25.28066 | -57.37774 | 19048 ft | 319 kts | 197° |
| 2026-04-17 16:28 | -25.30242 | -57.38352 | 19722 ft | 324 kts | 197° |
| 2026-04-17 16:28 | -25.32453 | -57.38940 | 20418 ft | 329 kts | 197° |
| 2026-04-17 16:28 | -25.34696 | -57.39535 | 21119 ft | 333 kts | 197° |
| 2026-04-17 16:29 | -25.36968 | -57.40137 | 21804 ft | 338 kts | 197° |
| 2026-04-17 16:29 | -25.39271 | -57.40746 | 22471 ft | 343 kts | 197° |
| 2026-04-17 16:29 | -25.41608 | -57.41364 | 22892 ft | 347 kts | 197° |
| 2026-04-17 16:29 | -25.43956 | -57.41984 | 22901 ft | 346 kts | 197° |
| 2026-04-17 16:30 | -25.46299 | -57.42603 | 22910 ft | 347 kts | 197° |
| 2026-04-17 16:30 | -25.48650 | -57.43223 | 22917 ft | 348 kts | 195° |
| 2026-04-17 16:30 | -25.51073 | -57.43500 | 22927 ft | 353 kts | 184° |
| 2026-04-17 16:30 | -25.53503 | -57.43269 | 22919 ft | 358 kts | 173° |
| 2026-04-17 16:31 | -25.55857 | -57.42298 | 22921 ft | 366 kts | 154° |
| 2026-04-17 16:31 | -25.57976 | -57.40705 | 22909 ft | 371 kts | 143° |
| 2026-04-17 16:31 | -25.59882 | -57.38768 | 22921 ft | 372 kts | 140° |
| 2026-04-17 16:31 | -25.61765 | -57.36787 | 22909 ft | 373 kts | 140° |
| 2026-04-17 16:32 | -25.63642 | -57.34802 | 22908 ft | 373 kts | 140° |
| 2026-04-17 16:32 | -25.65519 | -57.32822 | 22909 ft | 373 kts | 140° |
| 2026-04-17 16:32 | -25.67400 | -57.30847 | 22913 ft | 372 kts | 140° |
| 2026-04-17 16:32 | -25.69286 | -57.28871 | 22915 ft | 372 kts | 140° |
| 2026-04-17 16:33 | -25.71169 | -57.26905 | 22912 ft | 372 kts | 140° |
| 2026-04-17 16:33 | -25.73064 | -57.24928 | 22926 ft | 379 kts | 140° |
| 2026-04-17 16:33 | -25.75035 | -57.22877 | 22939 ft | 398 kts | 141° |
| 2026-04-17 16:33 | -25.77101 | -57.20728 | 22929 ft | 416 kts | 140° |
| 2026-04-17 16:34 | -25.79246 | -57.18491 | 22931 ft | 430 kts | 140° |
| 2026-04-17 16:34 | -25.81459 | -57.16179 | 22926 ft | 443 kts | 140° |
| 2026-04-17 16:34 | -25.83697 | -57.13836 | 22922 ft | 453 kts | 140° |
| 2026-04-17 16:34 | -25.86014 | -57.11409 | 22920 ft | 462 kts | 140° |
| 2026-04-17 16:35 | -25.88368 | -57.08941 | 22912 ft | 469 kts | 140° |
| 2026-04-17 16:35 | -25.90741 | -57.06453 | 22907 ft | 468 kts | 140° |
| 2026-04-17 16:35 | -25.93098 | -57.03981 | 22898 ft | 465 kts | 140° |
| 2026-04-17 16:35 | -25.95484 | -57.01575 | 22911 ft | 461 kts | 145° |
| 2026-04-17 16:36 | -25.98086 | -56.99529 | 22918 ft | 457 kts | 150° |
| 2026-04-17 16:36 | -26.00775 | -56.97647 | 22914 ft | 457 kts | 152° |
| 2026-04-17 16:36 | -26.03490 | -56.95804 | 22913 ft | 458 kts | 152° |
| 2026-04-17 16:36 | -26.06204 | -56.93950 | 22904 ft | 459 kts | 152° |
| 2026-04-17 16:37 | -26.08912 | -56.92068 | 22907 ft | 459 kts | 151° |
| 2026-04-17 16:37 | -26.11611 | -56.90160 | 22909 ft | 460 kts | 151° |
| 2026-04-17 16:37 | -26.14308 | -56.88232 | 22908 ft | 461 kts | 150° |
| 2026-04-17 16:37 | -26.17001 | -56.86294 | 22922 ft | 461 kts | 150° |
| 2026-04-17 16:38 | -26.19692 | -56.84352 | 22919 ft | 461 kts | 150° |
| 2026-04-17 16:38 | -26.22385 | -56.82406 | 22915 ft | 462 kts | 150° |
| 2026-04-17 16:38 | -26.25082 | -56.80459 | 22911 ft | 462 kts | 150° |
| 2026-04-17 16:38 | -26.27740 | -56.78538 | 22909 ft | 462 kts | 150° |
| 2026-04-17 16:39 | -26.30455 | -56.76577 | 22900 ft | 456 kts | 150° |
| 2026-04-17 16:39 | -26.33049 | -56.74700 | 22890 ft | 443 kts | 151° |
| 2026-04-17 16:39 | -26.35589 | -56.72859 | 22512 ft | 431 kts | 151° |
| 2026-04-17 16:39 | -26.38094 | -56.71048 | 21704 ft | 430 kts | 151° |
| 2026-04-17 16:40 | -26.40620 | -56.69225 | 20673 ft | 435 kts | 151° |
| 2026-04-17 16:40 | -26.43158 | -56.67391 | 19785 ft | 435 kts | 151° |
| 2026-04-17 16:40 | -26.45714 | -56.65541 | 18768 ft | 440 kts | 151° |
| 2026-04-17 16:40 | -26.48264 | -56.63691 | 17936 ft | 437 kts | 151° |
| 2026-04-17 16:41 | -26.50744 | -56.61739 | 17026 ft | 436 kts | 147° |
| 2026-04-17 16:41 | -26.53118 | -56.59652 | 16213 ft | 432 kts | 144° |
| 2026-04-17 16:41 | -26.55432 | -56.57528 | 15430 ft | 428 kts | 144° |
| 2026-04-17 16:41 | -26.57712 | -56.55413 | 14640 ft | 424 kts | 143° |
| 2026-04-17 16:42 | -26.59975 | -56.53325 | 13881 ft | 420 kts | 143° |
| 2026-04-17 16:42 | -26.62228 | -56.51262 | 13033 ft | 417 kts | 143° |
| 2026-04-17 16:42 | -26.64463 | -56.49230 | 12253 ft | 412 kts | 143° |
| 2026-04-17 16:42 | -26.66660 | -56.47241 | 11956 ft | 398 kts | 143° |
| 2026-04-17 16:43 | -26.68797 | -56.45311 | 11711 ft | 398 kts | 143° |
| 2026-04-17 16:43 | -26.70975 | -56.43349 | 11477 ft | 405 kts | 143° |
| 2026-04-17 16:43 | -26.73176 | -56.41366 | 11238 ft | 406 kts | 143° |
| 2026-04-17 16:43 | -26.75370 | -56.39387 | 10993 ft | 404 kts | 143° |
| 2026-04-17 16:44 | -26.77551 | -56.37417 | 10757 ft | 402 kts | 143° |
| 2026-04-17 16:44 | -26.79728 | -56.35450 | 10522 ft | 401 kts | 143° |
| 2026-04-17 16:44 | -26.81899 | -56.33486 | 10288 ft | 400 kts | 143° |
| 2026-04-17 16:44 | -26.84059 | -56.31533 | 9868 ft | 398 kts | 143° |
| 2026-04-17 16:45 | -26.86210 | -56.29586 | 9112 ft | 395 kts | 142° |
| 2026-04-17 16:45 | -26.88305 | -56.27688 | 8393 ft | 390 kts | 142° |
| 2026-04-17 16:45 | -26.90397 | -56.25791 | 7683 ft | 385 kts | 142° |
| 2026-04-17 16:45 | -26.92462 | -56.23919 | 6973 ft | 380 kts | 142° |
| 2026-04-17 16:46 | -26.94497 | -56.22074 | 6313 ft | 374 kts | 142° |
| 2026-04-17 16:46 | -26.96507 | -56.20251 | 5738 ft | 366 kts | 142° |
| 2026-04-17 16:46 | -26.98431 | -56.18502 | 5583 ft | 347 kts | 142° |
| 2026-04-17 16:46 | -27.00261 | -56.16839 | 5421 ft | 331 kts | 142° |
| 2026-04-17 16:47 | -27.02009 | -56.15251 | 5273 ft | 316 kts | 142° |
| 2026-04-17 16:47 | -27.03681 | -56.13731 | 5135 ft | 303 kts | 142° |
| 2026-04-17 16:47 | -27.05288 | -56.12270 | 5013 ft | 291 kts | 142° |
| 2026-04-17 16:47 | -27.06837 | -56.10862 | 4902 ft | 281 kts | 142° |
| 2026-04-17 16:48 | -27.08334 | -56.09500 | 4777 ft | 273 kts | 142° |
| 2026-04-17 16:48 | -27.09784 | -56.08179 | 4658 ft | 264 kts | 142° |
| 2026-04-17 16:48 | -27.11192 | -56.06897 | 4543 ft | 256 kts | 142° |
| 2026-04-17 16:48 | -27.12554 | -56.05657 | 4438 ft | 248 kts | 142° |
| 2026-04-17 16:49 | -27.13872 | -56.04456 | 4329 ft | 240 kts | 142° |
| 2026-04-17 16:49 | -27.15149 | -56.03292 | 4222 ft | 232 kts | 142° |
| 2026-04-17 16:49 | -27.16382 | -56.02169 | 4134 ft | 224 kts | 142° |
| 2026-04-17 16:49 | -27.17590 | -56.01067 | 3904 ft | 223 kts | 142° |
| 2026-04-17 16:50 | -27.18789 | -55.99974 | 3721 ft | 222 kts | 142° |
| 2026-04-17 16:50 | -27.19988 | -55.98879 | 3491 ft | 222 kts | 141° |
| 2026-04-17 16:50 | -27.21190 | -55.97798 | 3269 ft | 221 kts | 147° |
| 2026-04-17 16:50 | -27.22604 | -55.97279 | 3045 ft | 212 kts | 183° |
| 2026-04-17 16:51 | -27.24023 | -55.97341 | 2905 ft | 202 kts | 180° |
| 2026-04-17 16:51 | -27.25406 | -55.97282 | 2698 ft | 197 kts | 179° |
| 2026-04-17 16:51 | -27.26763 | -55.97245 | 2478 ft | 193 kts | 180° |
| 2026-04-17 16:51 | -27.28093 | -55.97223 | 2239 ft | 191 kts | 180° |
| 2026-04-17 16:52 | -27.29420 | -55.97201 | 1980 ft | 189 kts | 180° |
| 2026-04-17 16:52 | -27.30690 | -55.97181 | 1730 ft | 175 kts | 181° |
| 2026-04-17 16:52 | -27.31866 | -55.97160 | 1535 ft | 163 kts | 180° |
| 2026-04-17 16:52 | -27.32956 | -55.97143 | 1305 ft | 152 kts | 180° |
| 2026-04-17 16:53 | -27.33983 | -55.97127 | 1097 ft | 145 kts | 181° |
| 2026-04-17 16:53 | -27.34997 | -55.97110 | 938 ft | 149 kts | 182° |
| 2026-04-17 16:53 | -27.36035 | -55.97094 | 721 ft | 149 kts | 180° |
| 2026-04-17 16:53 | -27.37058 | -55.97068 | 506 ft | 147 kts | 180° |
| 2026-04-17 16:54 | -27.38079 | -55.97063 | 391 ft | 142 kts | 180° |
| 2026-04-17 16:54 | -27.38847 | -55.97049 | 410 ft | 49 kts | 175° |
| 2026-04-17 16:54 | -27.39077 | -55.96924 | 416 ft | 19 kts | 117° |
| 2026-04-17 16:54 | -27.39083 | -55.96832 | 416 ft | 7 kts | 90° |
| 2026-04-17 16:55 | -27.39124 | -55.96782 | 414 ft | 11 kts | 177° |
| 2026-04-17 16:55 | -27.39188 | -55.96759 | 419 ft | 10 kts | 109° |
| 2026-04-17 16:55 | -27.39193 | -55.96745 | 416 ft | 2 kts | 129° |
| 2026-04-17 16:55 | -27.39203 | -55.96738 | 414 ft | 0 kts | 147° |